sensor_id;sensor_type;location;lat;lon;timestamp;temperature;humidity
23713;DHT22;12035;49.978;8.298;2023-08-21T08:11:46;43.40;34.20
23713;DHT22;12035;49.978;8.298;2023-08-21T08:16:43;43.50;33.20
23713;DHT22;12035;49.978;8.298;2023-08-21T08:21:40;43.70;33.20
23713;DHT22;12035;49.978;8.298;2023-08-21T08:26:37;43.70;33.20
23713;DHT22;12035;49.978;8.298;2023-08-21T08:31:36;43.90;33.30
23713;DHT22;12035;49.978;8.298;2023-08-21T08:36:35;44.00;32.90
23713;DHT22;12035;49.978;8.298;2023-08-21T08:41:37;44.00;32.50
23713;DHT22;12035;49.978;8.298;2023-08-21T08:46:39;43.80;32.30
23713;DHT22;12035;49.978;8.298;2023-08-21T08:51:38;43.40;32.20
23713;DHT22;12035;49.978;8.298;2023-08-21T08:56:36;42.90;32.20
23713;DHT22;12035;49.978;8.298;2023-08-21T09:01:34;42.40;32.70
23713;DHT22;12035;49.978;8.298;2023-08-21T09:06:33;42.10;33.10
23713;DHT22;12035;49.978;8.298;2023-08-21T09:11:32;41.70;33.90
23713;DHT22;12035;49.978;8.298;2023-08-21T09:16:29;41.40;33.50
23713;DHT22;12035;49.978;8.298;2023-08-21T09:21:28;41.20;34.30
23713;DHT22;12035;49.978;8.298;2023-08-21T09:26:30;41.10;34.60
23713;DHT22;12035;49.978;8.298;2023-08-21T09:31:30;41.10;34.80
23713;DHT22;12035;49.978;8.298;2023-08-21T09:36:28;41.10;35.00
23713;DHT22;12035;49.978;8.298;2023-08-21T09:41:27;41.20;35.00
23713;DHT22;12035;49.978;8.298;2023-08-21T09:46:25;41.20;35.00
23713;DHT22;12035;49.978;8.298;2023-08-21T09:51:23;41.10;35.10
23713;DHT22;12035;49.978;8.298;2023-08-21T09:56:20;41.10;35.10
23713;DHT22;12035;49.978;8.298;2023-08-21T10:01:20;41.00;35.50
23713;DHT22;12035;49.978;8.298;2023-08-21T10:06:18;40.80;35.50
23713;DHT22;12035;49.978;8.298;2023-08-21T10:11:19;40.60;35.60
23713;DHT22;12035;49.978;8.298;2023-08-21T10:16:18;40.40;36.10
23713;DHT22;12035;49.978;8.298;2023-08-21T10:21:18;40.40;36.10
23713;DHT22;12035;49.978;8.298;2023-08-21T10:26:19;40.30;36.50
23713;DHT22;12035;49.978;8.298;2023-08-21T10:31:32;40.40;36.50
23713;DHT22;12035;49.978;8.298;2023-08-21T10:42:05;40.50;36.50
23713;DHT22;12035;49.978;8.298;2023-08-21T10:47:18;40.40;36.30
23713;DHT22;12035;49.978;8.298;2023-08-21T10:52:21;40.30;36.60
23713;DHT22;12035;49.978;8.298;2023-08-21T10:57:20;40.20;36.60
23713;DHT22;12035;49.978;8.298;2023-08-21T11:02:20;40.20;36.40
23713;DHT22;12035;49.978;8.298;2023-08-21T11:07:18;40.10;36.40
23713;DHT22;12035;49.978;8.298;2023-08-21T11:12:17;40.00;36.40
23713;DHT22;12035;49.978;8.298;2023-08-21T11:17:15;39.90;36.50
23713;DHT22;12035;49.978;8.298;2023-08-21T11:22:15;39.80;36.40
23713;DHT22;12035;49.978;8.298;2023-08-21T11:27:13;39.80;36.60
23713;DHT22;12035;49.978;8.298;2023-08-21T11:32:16;39.80;36.60
23713;DHT22;12035;49.978;8.298;2023-08-21T11:37:16;39.80;36.50
23713;DHT22;12035;49.978;8.298;2023-08-21T11:42:14;39.80;36.50
23713;DHT22;12035;49.978;8.298;2023-08-21T11:47:12;39.90;36.30
23713;DHT22;12035;49.978;8.298;2023-08-21T11:52:10;39.90;36.00
23713;DHT22;12035;49.978;8.298;2023-08-21T11:57:12;39.90;36.10
23713;DHT22;12035;49.978;8.298;2023-08-21T12:02:14;39.90;35.00
23713;DHT22;12035;49.978;8.298;2023-08-21T12:07:13;39.90;35.30
23713;DHT22;12035;49.978;8.298;2023-08-21T12:12:12;39.90;35.10
23713;DHT22;12035;49.978;8.298;2023-08-21T12:17:09;39.80;34.80
23713;DHT22;12035;49.978;8.298;2023-08-21T12:22:06;39.70;34.50
23713;DHT22;12035;49.978;8.298;2023-08-21T12:27:04;39.60;35.10
23713;DHT22;12035;49.978;8.298;2023-08-21T12:32:02;39.50;34.80
23713;DHT22;12035;49.978;8.298;2023-08-21T12:36:59;39.40;34.50
23713;DHT22;12035;49.978;8.298;2023-08-21T12:41:57;39.30;34.60
23713;DHT22;12035;49.978;8.298;2023-08-21T12:46:54;39.20;34.60
23713;DHT22;12035;49.978;8.298;2023-08-21T12:51:52;39.20;34.60
23713;DHT22;12035;49.978;8.298;2023-08-21T12:56:50;39.20;34.40
23713;DHT22;12035;49.978;8.298;2023-08-21T13:01:49;39.20;34.10
23713;DHT22;12035;49.978;8.298;2023-08-21T13:06:46;39.20;33.60
23713;DHT22;12035;49.978;8.298;2023-08-21T13:11:44;39.10;33.50
23713;DHT22;12035;49.978;8.298;2023-08-21T13:16:41;39.00;33.40
23713;DHT22;12035;49.978;8.298;2023-08-21T13:21:38;38.90;33.20
23713;DHT22;12035;49.978;8.298;2023-08-21T13:26:35;38.90;33.40
23713;DHT22;12035;49.978;8.298;2023-08-21T13:31:34;38.90;33.50
23713;DHT22;12035;49.978;8.298;2023-08-21T13:36:31;38.80;33.30
23713;DHT22;12035;49.978;8.298;2023-08-21T13:41:28;38.70;33.20
23713;DHT22;12035;49.978;8.298;2023-08-21T13:46:25;38.60;33.50
23713;DHT22;12035;49.978;8.298;2023-08-21T13:51:23;38.60;33.80
23713;DHT22;12035;49.978;8.298;2023-08-21T13:56:20;38.60;33.80
23713;DHT22;12035;49.978;8.298;2023-08-21T14:01:17;38.50;34.00
23713;DHT22;12035;49.978;8.298;2023-08-21T14:06:14;38.50;34.00
23713;DHT22;12035;49.978;8.298;2023-08-21T14:11:13;38.50;33.90
23713;DHT22;12035;49.978;8.298;2023-08-21T14:16:10;38.50;33.70
23713;DHT22;12035;49.978;8.298;2023-08-21T14:21:07;38.40;33.50
23713;DHT22;12035;49.978;8.298;2023-08-21T14:26:04;38.40;33.50
23713;DHT22;12035;49.978;8.298;2023-08-21T14:31:02;38.40;33.80
23713;DHT22;12035;49.978;8.298;2023-08-21T14:36:00;38.40;34.20
23713;DHT22;12035;49.978;8.298;2023-08-21T14:40:57;38.40;34.00
23713;DHT22;12035;49.978;8.298;2023-08-21T14:45:54;38.40;33.80
23713;DHT22;12035;49.978;8.298;2023-08-21T14:50:53;38.50;34.00
23713;DHT22;12035;49.978;8.298;2023-08-21T14:55:50;38.60;33.70
23713;DHT22;12035;49.978;8.298;2023-08-21T15:00:47;38.60;33.60
23713;DHT22;12035;49.978;8.298;2023-08-21T15:05:44;38.60;33.70
23713;DHT22;12035;49.978;8.298;2023-08-21T15:10:43;38.70;33.70
23713;DHT22;12035;49.978;8.298;2023-08-21T15:15:40;38.70;33.80
23713;DHT22;12035;49.978;8.298;2023-08-21T15:20:37;38.60;34.10
23713;DHT22;12035;49.978;8.298;2023-08-21T15:25:34;38.60;34.40
23713;DHT22;12035;49.978;8.298;2023-08-21T15:30:32;38.60;34.10
23713;DHT22;12035;49.978;8.298;2023-08-21T15:35:29;38.60;33.90
23713;DHT22;12035;49.978;8.298;2023-08-21T15:40:26;38.60;34.00
23713;DHT22;12035;49.978;8.298;2023-08-21T15:45:23;38.60;34.00
23713;DHT22;12035;49.978;8.298;2023-08-21T15:50:22;38.70;34.10
23713;DHT22;12035;49.978;8.298;2023-08-21T15:55:19;38.80;34.00
23713;DHT22;12035;49.978;8.298;2023-08-21T16:00:17;38.90;33.80
23713;DHT22;12035;49.978;8.298;2023-08-21T16:05:16;38.90;33.80
23713;DHT22;12035;49.978;8.298;2023-08-21T16:10:17;38.80;33.90
23713;DHT22;12035;49.978;8.298;2023-08-21T16:15:14;38.60;34.00
23713;DHT22;12035;49.978;8.298;2023-08-21T16:20:11;38.40;34.40
23713;DHT22;12035;49.978;8.298;2023-08-21T16:25:12;38.30;34.50
23713;DHT22;12035;49.978;8.298;2023-08-21T16:30:11;38.20;34.70
23713;DHT22;12035;49.978;8.298;2023-08-21T16:35:08;38.10;34.70
23713;DHT22;12035;49.978;8.298;2023-08-21T16:40:06;38.00;34.80
23713;DHT22;12035;49.978;8.298;2023-08-21T16:45:05;38.10;35.10
23713;DHT22;12035;49.978;8.298;2023-08-21T16:50:05;38.00;35.10
23713;DHT22;12035;49.978;8.298;2023-08-21T16:55:03;38.00;35.90
23713;DHT22;12035;49.978;8.298;2023-08-21T17:00:00;38.00;35.40
23713;DHT22;12035;49.978;8.298;2023-08-21T17:05:01;37.90;35.20
23713;DHT22;12035;49.978;8.298;2023-08-21T17:10:02;37.90;35.40
23713;DHT22;12035;49.978;8.298;2023-08-21T17:15:00;37.80;35.30
23713;DHT22;12035;49.978;8.298;2023-08-21T17:19:58;37.80;35.30
23713;DHT22;12035;49.978;8.298;2023-08-21T17:24:55;37.80;35.40
23713;DHT22;12035;49.978;8.298;2023-08-21T17:29:56;37.70;35.60
23713;DHT22;12035;49.978;8.298;2023-08-21T17:34:53;37.70;35.60
23713;DHT22;12035;49.978;8.298;2023-08-21T17:39:50;37.60;35.90
23713;DHT22;12035;49.978;8.298;2023-08-21T17:44:47;37.60;36.60
23713;DHT22;12035;49.978;8.298;2023-08-21T17:49:46;37.60;37.30
23713;DHT22;12035;49.978;8.298;2023-08-21T17:54:43;37.40;37.80
23713;DHT22;12035;49.978;8.298;2023-08-21T17:59:40;37.20;38.10
23713;DHT22;12035;49.978;8.298;2023-08-21T18:04:37;37.00;38.30
23713;DHT22;12035;49.978;8.298;2023-08-21T18:09:35;36.80;38.70
23713;DHT22;12035;49.978;8.298;2023-08-21T18:14:33;36.70;39.00
23713;DHT22;12035;49.978;8.298;2023-08-21T18:19:30;36.60;39.10
23713;DHT22;12035;49.978;8.298;2023-08-21T18:24:30;36.50;39.40
23713;DHT22;12035;49.978;8.298;2023-08-21T18:29:28;36.30;39.60
23713;DHT22;12035;49.978;8.298;2023-08-21T18:34:25;36.20;39.80
23713;DHT22;12035;49.978;8.298;2023-08-21T18:39:22;36.20;40.10
23713;DHT22;12035;49.978;8.298;2023-08-21T18:44:19;36.10;40.20
23713;DHT22;12035;49.978;8.298;2023-08-21T18:49:18;36.00;40.40
23713;DHT22;12035;49.978;8.298;2023-08-21T18:54:15;35.90;40.70
23713;DHT22;12035;49.978;8.298;2023-08-21T18:59:18;35.80;40.80
23713;DHT22;12035;49.978;8.298;2023-08-21T19:04:15;35.70;40.90
23713;DHT22;12035;49.978;8.298;2023-08-21T19:09:14;35.60;41.20
23713;DHT22;12035;49.978;8.298;2023-08-21T19:14:11;35.60;41.50
23713;DHT22;12035;49.978;8.298;2023-08-21T19:19:08;35.40;41.40
23713;DHT22;12035;49.978;8.298;2023-08-21T19:24:05;35.30;41.50
23713;DHT22;12035;49.978;8.298;2023-08-21T19:29:04;35.30;41.70
23713;DHT22;12035;49.978;8.298;2023-08-21T19:34:01;35.20;41.90
23713;DHT22;12035;49.978;8.298;2023-08-21T19:38:58;35.10;41.80
23713;DHT22;12035;49.978;8.298;2023-08-21T19:43:55;35.00;41.80
23713;DHT22;12035;49.978;8.298;2023-08-21T19:48:53;34.90;42.00
23713;DHT22;12035;49.978;8.298;2023-08-21T19:53:50;34.80;42.20
23713;DHT22;12035;49.978;8.298;2023-08-21T19:58:48;34.60;42.20
23713;DHT22;12035;49.978;8.298;2023-08-21T20:03:45;34.50;42.30
23713;DHT22;12035;49.978;8.298;2023-08-21T20:08:45;34.50;42.50
23713;DHT22;12035;49.978;8.298;2023-08-21T20:13:43;34.40;42.70
23713;DHT22;12035;49.978;8.298;2023-08-21T20:18:40;34.30;42.50
23713;DHT22;12035;49.978;8.298;2023-08-21T20:23:38;34.10;42.50
23713;DHT22;12035;49.978;8.298;2023-08-21T20:28:36;34.00;42.70
23713;DHT22;12035;49.978;8.298;2023-08-21T20:33:33;33.90;42.80
23713;DHT22;12035;49.978;8.298;2023-08-21T20:38:30;33.80;42.80
23713;DHT22;12035;49.978;8.298;2023-08-21T20:43:27;33.70;42.90
23713;DHT22;12035;49.978;8.298;2023-08-21T20:48:26;33.70;43.00
23713;DHT22;12035;49.978;8.298;2023-08-21T20:53:24;33.60;43.00
23713;DHT22;12035;49.978;8.298;2023-08-21T20:58:21;33.50;43.00
23713;DHT22;12035;49.978;8.298;2023-08-21T21:03:18;33.40;43.00
23713;DHT22;12035;49.978;8.298;2023-08-21T21:08:16;33.40;43.00
23713;DHT22;12035;49.978;8.298;2023-08-21T21:13:13;33.30;43.10
23713;DHT22;12035;49.978;8.298;2023-08-21T21:18:10;33.30;43.10
23713;DHT22;12035;49.978;8.298;2023-08-21T21:23:07;33.20;43.10
23713;DHT22;12035;49.978;8.298;2023-08-21T21:28:06;33.20;43.10
23713;DHT22;12035;49.978;8.298;2023-08-21T21:33:04;33.20;43.20
23713;DHT22;12035;49.978;8.298;2023-08-21T21:38:01;33.20;43.30
23713;DHT22;12035;49.978;8.298;2023-08-21T21:42:58;33.10;43.40
23713;DHT22;12035;49.978;8.298;2023-08-21T21:47:56;33.10;43.40
23713;DHT22;12035;49.978;8.298;2023-08-21T21:52:53;33.10;43.50
23713;DHT22;12035;49.978;8.298;2023-08-21T21:57:50;33.00;43.60
23713;DHT22;12035;49.978;8.298;2023-08-21T22:02:47;32.90;44.00
23713;DHT22;12035;49.978;8.298;2023-08-21T22:07:45;32.90;44.40
23713;DHT22;12035;49.978;8.298;2023-08-21T22:12:44;32.80;44.60
23713;DHT22;12035;49.978;8.298;2023-08-21T22:17:41;32.70;44.50
23713;DHT22;12035;49.978;8.298;2023-08-21T22:22:38;32.70;44.70
23713;DHT22;12035;49.978;8.298;2023-08-21T22:27:36;32.60;44.70
23713;DHT22;12035;49.978;8.298;2023-08-21T22:32:33;32.60;45.10
23713;DHT22;12035;49.978;8.298;2023-08-21T22:37:31;32.50;44.90
23713;DHT22;12035;49.978;8.298;2023-08-21T22:42:28;32.40;45.20
23713;DHT22;12035;49.978;8.298;2023-08-21T22:47:26;32.40;45.30
23713;DHT22;12035;49.978;8.298;2023-08-21T22:52:23;32.40;45.60
23713;DHT22;12035;49.978;8.298;2023-08-21T22:57:20;32.20;45.40
23713;DHT22;12035;49.978;8.298;2023-08-21T23:02:17;32.10;45.50
23713;DHT22;12035;49.978;8.298;2023-08-21T23:07:15;31.90;45.70
23713;DHT22;12035;49.978;8.298;2023-08-21T23:12:12;31.80;46.00
23713;DHT22;12035;49.978;8.298;2023-08-21T23:17:09;31.70;46.00
23713;DHT22;12035;49.978;8.298;2023-08-21T23:22:07;31.60;46.00
23713;DHT22;12035;49.978;8.298;2023-08-21T23:27:05;31.50;46.20
23713;DHT22;12035;49.978;8.298;2023-08-21T23:32:02;31.50;46.20
23713;DHT22;12035;49.978;8.298;2023-08-21T23:36:59;31.40;46.40
23713;DHT22;12035;49.978;8.298;2023-08-21T23:41:56;31.30;46.50
23713;DHT22;12035;49.978;8.298;2023-08-21T23:46:55;31.20;46.70
23713;DHT22;12035;49.978;8.298;2023-08-21T23:51:52;31.00;46.90
23713;DHT22;12035;49.978;8.298;2023-08-21T23:56:49;31.00;47.00
